createdAt,value
2022-11-27T02:39:03.571Z,38.74
2022-11-27T02:41:42.614Z,38.77
2022-11-27T02:44:12.881Z,38.79
2022-11-27T02:46:43.150Z,38.74
2022-11-27T02:49:15.117Z,38.61
2022-11-27T02:52:00.430Z,38.55
2022-11-27T02:54:31.454Z,38.45
2022-11-27T02:57:02.675Z,38.35
2022-11-27T02:59:33.287Z,38.25
2022-11-27T03:02:07.580Z,38.17
2022-11-27T03:04:38.537Z,38.09
2022-11-27T03:07:11.561Z,38.02
2022-11-27T03:09:49.779Z,37.89
2022-11-27T03:12:20.104Z,37.93
2022-11-27T03:14:50.229Z,37.84
2022-11-27T03:17:38.124Z,37.81
2022-11-27T03:20:16.611Z,37.77
2022-11-27T03:22:48.142Z,37.72
2022-11-27T03:25:19.893Z,37.72
2022-11-27T03:27:52.479Z,37.63
2022-11-27T03:30:23.422Z,37.63
2022-11-27T03:32:54.039Z,37.61
2022-11-27T03:35:25.472Z,37.61
2022-11-27T03:38:06.130Z,37.59
2022-11-27T03:40:42.115Z,37.54
2022-11-27T03:43:16.575Z,37.54
2022-11-27T03:46:03.677Z,37.61
2022-11-27T03:48:42.100Z,37.53
2022-11-27T03:51:20.673Z,37.52
2022-11-27T03:53:56.203Z,37.50
2022-11-27T03:56:32.126Z,37.46
2022-11-27T03:59:07.178Z,37.42
2022-11-27T04:01:37.433Z,37.37
2022-11-27T04:04:07.778Z,37.33
2022-11-27T04:06:37.930Z,37.36
2022-11-27T04:09:08.408Z,37.36
2022-11-27T04:14:17.235Z,37.31
2022-11-27T04:16:47.487Z,37.33
2022-11-27T04:19:17.665Z,37.35
2022-11-27T04:21:47.929Z,37.41
2022-11-27T04:24:18.320Z,37.43
2022-11-27T04:26:48.622Z,37.47
2022-11-27T04:29:18.941Z,37.52
2022-11-27T04:31:48.962Z,37.59
2022-11-27T04:34:19.191Z,37.52
2022-11-27T04:36:49.311Z,37.46
2022-11-27T04:39:19.495Z,37.45
2022-11-27T04:41:49.923Z,37.41
2022-11-27T04:44:19.986Z,37.40
2022-11-27T04:46:50.267Z,37.41
2022-11-27T04:49:20.483Z,37.37
2022-11-27T04:51:50.924Z,37.36
2022-11-27T04:54:20.755Z,37.34
2022-11-27T04:56:53.762Z,37.32
2022-11-27T04:59:24.877Z,37.32
2022-11-27T05:01:56.125Z,37.30
2022-11-27T05:04:26.771Z,37.30
2022-11-27T05:06:56.828Z,37.28
2022-11-27T05:09:27.460Z,37.26
2022-11-27T05:11:57.521Z,37.25
2022-11-27T05:14:29.080Z,37.23
2022-11-27T05:17:00.353Z,37.20
2022-11-27T05:19:31.384Z,37.19
2022-11-27T05:22:01.546Z,37.18
2022-11-27T05:24:31.935Z,37.17
2022-11-27T05:27:02.061Z,37.14
2022-11-27T05:29:32.265Z,37.09
2022-11-27T05:32:07.968Z,37.10
2022-11-27T05:34:38.507Z,37.05
2022-11-27T05:37:12.883Z,37.04
2022-11-27T05:39:42.515Z,36.92
2022-11-27T05:42:13.015Z,36.95
2022-11-27T05:44:46.027Z,36.95
2022-11-27T05:47:17.763Z,37.03
2022-11-27T05:49:48.190Z,37.06
2022-11-27T05:52:19.987Z,37.15
2022-11-27T05:54:49.953Z,37.19
2022-11-27T05:57:20.234Z,37.29
2022-11-27T05:59:50.320Z,37.36
2022-11-27T06:02:23.864Z,37.45
2022-11-27T06:04:52.816Z,37.52
2022-11-27T06:07:25.366Z,37.46
2022-11-27T06:09:55.861Z,37.38
2022-11-27T06:12:30.079Z,37.37
2022-11-27T06:15:00.474Z,37.30
2022-11-27T06:17:30.712Z,37.31
2022-11-27T06:20:00.856Z,37.28
2022-11-27T06:22:31.287Z,37.22
2022-11-27T06:25:01.547Z,37.22
2022-11-27T06:27:34.601Z,37.35
2022-11-27T06:30:04.520Z,37.35
2022-11-27T06:32:34.844Z,37.18
2022-11-27T06:35:12.123Z,37.16
2022-11-27T06:38:08.935Z,37.16
2022-11-27T06:41:06.441Z,37.08
2022-11-27T06:43:44.551Z,37.12
2022-11-27T06:46:20.825Z,37.10
2022-11-27T06:48:52.130Z,37.05
2022-11-27T06:51:25.029Z,37.05
2022-11-27T06:54:09.748Z,37.04
2022-11-27T06:56:41.188Z,37.01
2022-11-27T06:59:33.057Z,36.98
2022-11-27T07:02:05.905Z,36.96
2022-11-27T07:04:44.875Z,36.99
2022-11-27T07:07:19.736Z,36.94
2022-11-27T07:09:50.196Z,36.93
2022-11-27T07:12:20.416Z,36.82
2022-11-27T07:14:50.593Z,36.90
2022-11-27T07:17:20.865Z,36.86
2022-11-27T07:19:55.335Z,36.82
2022-11-27T07:22:26.157Z,36.77
2022-11-27T07:24:57.190Z,36.82
2022-11-27T07:27:27.807Z,36.78
2022-11-27T07:29:58.030Z,36.70
2022-11-27T07:32:28.464Z,36.68
2022-11-27T07:34:58.587Z,36.72
2022-11-27T07:37:28.952Z,36.76
2022-11-27T07:40:02.882Z,36.82
2022-11-27T07:42:39.547Z,36.91
2022-11-27T07:45:03.678Z,37.00
2022-11-27T07:47:33.845Z,37.08
2022-11-27T07:50:03.924Z,37.18
2022-11-27T07:52:39.553Z,37.27
2022-11-27T07:55:05.875Z,37.41
2022-11-27T07:57:36.004Z,37.23
2022-11-27T08:00:06.985Z,37.21
2022-11-27T08:02:36.946Z,37.15
2022-11-27T08:05:12.376Z,37.11
2022-11-27T08:07:39.499Z,37.08
2022-11-27T08:10:10.378Z,37.10
2022-11-27T08:12:40.488Z,37.09
2022-11-27T08:15:11.706Z,37.04
2022-11-27T08:17:43.710Z,37.02
2022-11-27T08:20:14.174Z,36.99
2022-11-27T08:22:44.323Z,36.99
2022-11-27T08:25:14.757Z,36.96
2022-11-27T08:27:46.170Z,36.95
2022-11-27T08:30:16.712Z,36.96
2022-11-27T08:32:47.118Z,36.89
2022-11-27T08:35:17.244Z,36.89
2022-11-27T08:37:50.332Z,36.87
2022-11-27T08:40:20.639Z,36.91
2022-11-27T08:42:50.835Z,36.73
2022-11-27T08:45:21.143Z,36.78
2022-11-27T08:47:51.664Z,36.72
2022-11-27T08:50:22.028Z,36.69
2022-11-27T08:52:52.432Z,36.64
2022-11-27T08:55:22.964Z,36.69
2022-11-27T08:57:54.284Z,36.74
2022-11-27T09:00:28.170Z,36.69
2022-11-27T09:02:58.505Z,36.72
2022-11-27T09:05:29.208Z,36.64
2022-11-27T09:08:00.673Z,36.68
2022-11-27T09:10:30.653Z,36.64
2022-11-27T09:13:01.604Z,36.59
2022-11-27T09:15:31.754Z,36.60
2022-11-27T09:18:02.189Z,36.62
2022-11-27T09:20:32.336Z,36.68
2022-11-27T09:23:03.514Z,36.75
2022-11-27T09:25:33.803Z,36.82
2022-11-27T09:28:04.143Z,36.91
2022-11-27T09:30:34.373Z,36.98
2022-11-27T09:33:04.826Z,37.09
2022-11-27T09:35:35.321Z,37.09
2022-11-27T09:38:05.460Z,37.02
2022-11-27T09:40:36.083Z,37.04
2022-11-27T09:43:11.137Z,37.00
2022-11-27T09:45:49.601Z,36.93
2022-11-27T09:48:21.267Z,36.94
2022-11-27T09:50:52.478Z,36.91
2022-11-27T09:53:29.082Z,36.90
2022-11-27T09:55:59.557Z,36.90
2022-11-27T09:58:42.841Z,36.81
2022-11-27T10:01:14.813Z,36.84
2022-11-27T10:03:45.259Z,36.80
2022-11-27T10:06:35.762Z,36.73
2022-11-27T10:09:20.333Z,36.74
2022-11-27T10:12:20.094Z,36.67
2022-11-27T10:15:10.202Z,36.63
2022-11-27T10:17:45.899Z,36.62
2022-11-27T10:20:24.736Z,36.62
2022-11-27T10:23:04.058Z,36.56
2022-11-27T10:25:45.237Z,36.60
2022-11-27T10:28:29.990Z,36.65
2022-11-27T10:31:05.290Z,36.58
2022-11-27T10:33:58.145Z,36.52
2022-11-27T10:36:33.176Z,36.48
2022-11-27T10:39:03.160Z,36.52
2022-11-27T10:41:49.299Z,36.47
2022-11-27T10:44:23.968Z,36.51
2022-11-27T10:46:54.434Z,36.52
2022-11-27T10:49:25.588Z,36.58
2022-11-27T10:51:56.609Z,36.63
2022-11-27T10:54:33.281Z,36.70
2022-11-27T10:57:38.889Z,36.73
2022-11-27T11:00:11.771Z,36.87
2022-11-27T11:02:42.031Z,36.96
2022-11-27T11:08:07.506Z,37.15
2022-11-27T11:10:39.286Z,37.15
2022-11-27T11:13:23.431Z,37.06
2022-11-27T11:16:02.100Z,37.01
2022-11-27T11:18:37.567Z,36.95
2022-11-27T11:21:09.684Z,36.91
2022-11-27T11:23:41.600Z,36.88
2022-11-27T11:26:19.875Z,36.86
2022-11-27T11:28:52.520Z,36.88
2022-11-27T11:31:36.902Z,36.80
2022-11-27T11:34:09.569Z,36.82
2022-11-27T11:36:39.875Z,36.81
2022-11-27T11:39:11.745Z,36.79
2022-11-27T11:41:41.674Z,36.77
2022-11-27T11:44:20.229Z,36.70
2022-11-27T11:47:00.010Z,36.65
2022-11-27T11:49:30.564Z,36.54
2022-11-27T11:52:12.822Z,36.62
2022-11-27T11:55:11.927Z,36.63
2022-11-27T11:58:04.492Z,36.52
2022-11-27T12:01:04.741Z,36.49
2022-11-27T12:03:29.654Z,36.57
2022-11-27T12:06:21.804Z,36.51
2022-11-27T12:09:12.816Z,36.53
2022-11-27T12:11:57.741Z,36.50
2022-11-27T12:14:49.015Z,36.45
2022-11-27T12:17:47.008Z,36.41
2022-11-27T12:20:22.692Z,36.39
2022-11-27T12:23:04.855Z,36.39
2022-11-27T12:25:43.319Z,36.46
2022-11-27T12:28:35.442Z,36.50
2022-11-27T12:31:17.459Z,36.54
2022-11-27T12:34:06.640Z,36.58
2022-11-27T12:36:39.246Z,36.64
2022-11-27T12:39:29.965Z,36.72
2022-11-27T12:42:22.403Z,36.78
2022-11-27T12:45:03.239Z,36.85
2022-11-27T12:47:40.411Z,36.97
2022-11-27T12:50:26.061Z,37.04
2022-11-27T12:53:09.943Z,36.97
2022-11-27T12:55:40.197Z,36.92
2022-11-27T12:58:14.803Z,36.87
2022-11-27T13:00:44.786Z,36.85
2022-11-27T13:03:17.721Z,36.84
2022-11-27T13:05:50.456Z,36.79
2022-11-27T13:08:42.296Z,36.78
2022-11-27T13:11:14.580Z,36.77
2022-11-27T13:13:52.108Z,36.73
2022-11-27T13:16:33.063Z,36.68
2022-11-27T13:19:14.792Z,36.68
2022-11-27T13:21:44.822Z,36.60
2022-11-27T13:24:15.389Z,36.60
2022-11-27T13:27:04.555Z,36.55
2022-11-27T13:29:36.493Z,36.52
2022-11-27T13:32:06.782Z,36.50
2022-11-27T13:34:38.470Z,36.50
2022-11-27T13:37:09.116Z,36.46
2022-11-27T13:39:41.057Z,36.46
2022-11-27T13:42:22.975Z,36.49
2022-11-27T13:45:03.981Z,36.40
2022-11-27T13:47:39.258Z,36.44
2022-11-27T13:50:13.826Z,36.46
2022-11-27T13:53:05.114Z,36.44
2022-11-27T13:55:36.388Z,36.51
2022-11-27T13:58:06.513Z,36.43
2022-11-27T14:00:39.066Z,36.43
2022-11-27T14:03:10.909Z,36.38
2022-11-27T14:05:45.806Z,36.39
2022-11-27T14:08:29.328Z,36.40
2022-11-27T14:11:04.669Z,36.40
2022-11-27T14:13:48.373Z,36.41
2022-11-27T14:16:30.257Z,36.36
2022-11-27T14:19:05.009Z,36.33
2022-11-27T14:21:45.179Z,36.35
2022-11-27T14:24:27.226Z,36.30
2022-11-27T14:26:58.035Z,36.34
2022-11-27T14:29:29.610Z,36.29
2022-11-27T14:32:03.384Z,36.31
2022-11-27T14:34:51.874Z,36.29
2022-11-27T14:37:29.137Z,36.31
2022-11-27T14:39:59.164Z,36.28
2022-11-27T14:42:31.244Z,36.26
2022-11-27T14:45:09.576Z,36.26
2022-11-27T14:47:41.197Z,36.26
2022-11-27T14:50:13.203Z,36.24
2022-11-27T14:52:44.753Z,36.23
2022-11-27T14:55:21.156Z,36.32
2022-11-27T14:57:51.656Z,36.46
2022-11-27T15:00:25.580Z,36.53
2022-11-27T15:02:55.550Z,36.55
2022-11-27T15:05:27.560Z,36.54
2022-11-27T15:07:59.672Z,36.58
2022-11-27T15:10:38.022Z,36.59
2022-11-27T15:13:08.807Z,36.61
2022-11-27T15:15:44.123Z,36.63
2022-11-27T15:18:18.513Z,36.65
2022-11-27T15:20:48.639Z,36.70
2022-11-27T15:23:29.259Z,36.69
2022-11-27T15:26:16.780Z,36.73
2022-11-27T15:28:45.696Z,36.75
2022-11-27T15:31:27.288Z,36.78
2022-11-27T15:34:21.603Z,36.84
2022-11-27T15:36:53.407Z,36.85
2022-11-27T15:39:38.971Z,36.89
2022-11-27T15:42:11.461Z,36.89
2022-11-27T15:44:41.890Z,36.92
2022-11-27T15:47:26.958Z,36.92
2022-11-27T15:49:57.384Z,36.93
2022-11-27T15:52:28.324Z,36.93
2022-11-27T15:54:58.720Z,36.90
2022-11-27T15:57:34.209Z,36.94
2022-11-27T16:00:04.883Z,36.98
2022-11-27T16:02:34.906Z,36.97
2022-11-27T16:06:33.947Z,38.35
2022-11-27T16:09:04.065Z,36.79
2022-11-27T16:11:35.002Z,36.84
2022-11-27T16:14:05.667Z,36.86
2022-11-27T16:16:36.573Z,36.95
2022-11-27T16:19:07.313Z,37.00
2022-11-27T16:21:37.613Z,37.06
2022-11-27T16:24:08.969Z,37.09
2022-11-27T16:26:38.989Z,37.17
2022-11-27T16:29:09.567Z,37.16
2022-11-27T16:31:39.803Z,37.18
2022-11-27T16:34:09.924Z,37.31
2022-11-27T16:36:40.789Z,37.22
2022-11-27T16:39:10.576Z,37.10
2022-11-27T16:41:40.867Z,36.89
2022-11-27T16:44:15.148Z,36.78
2022-11-27T16:46:45.299Z,36.68
2022-11-27T16:49:15.271Z,36.61
2022-11-27T16:51:45.349Z,36.58
2022-11-27T16:54:15.296Z,36.53
2022-11-27T16:56:45.249Z,36.50
2022-11-27T16:59:16.228Z,36.51
2022-11-27T17:01:46.323Z,36.50
2022-11-27T17:04:19.303Z,36.51
2022-11-27T17:06:49.879Z,36.54
2022-11-27T17:09:19.818Z,36.56
2022-11-27T17:11:49.695Z,36.59
2022-11-27T17:14:21.307Z,36.60
2022-11-27T17:16:51.297Z,36.68
2022-11-27T17:19:22.950Z,36.65
2022-11-27T17:21:53.084Z,36.61
2022-11-27T17:24:23.008Z,36.60
2022-11-27T17:26:54.079Z,36.54
2022-11-27T17:29:24.335Z,36.53
2022-11-27T17:31:55.423Z,36.48
2022-11-27T17:34:26.466Z,36.46
2022-11-27T17:36:58.507Z,36.43
2022-11-27T17:39:28.655Z,36.40
2022-11-27T17:41:58.774Z,36.38
2022-11-27T17:44:28.859Z,36.34
2022-11-27T17:46:58.523Z,36.33
2022-11-27T17:49:28.712Z,36.31
2022-11-27T17:52:04.723Z,36.31
2022-11-27T17:54:31.039Z,36.28
2022-11-27T17:57:00.999Z,36.25
2022-11-27T17:59:31.056Z,36.24
2022-11-27T18:02:01.146Z,36.21
2022-11-27T18:04:31.859Z,36.19
2022-11-27T18:07:01.876Z,36.18
2022-11-27T18:09:31.887Z,36.15
2022-11-27T18:12:01.957Z,36.10
2022-11-27T18:14:32.006Z,36.11
2022-11-27T18:17:03.375Z,36.07
2022-11-27T18:19:33.675Z,36.19
2022-11-27T18:22:03.632Z,36.11
2022-11-27T18:24:33.547Z,36.04
2022-11-27T18:27:08.617Z,36.02
2022-11-27T18:29:35.118Z,35.99
2022-11-27T18:32:05.269Z,35.97
2022-11-27T18:34:35.361Z,35.97
2022-11-27T18:37:05.788Z,36.00
2022-11-27T18:39:36.070Z,37.09
2022-11-27T18:42:06.135Z,37.18
2022-11-27T18:44:39.580Z,37.13
2022-11-27T18:47:09.515Z,37.21
2022-11-27T18:49:43.127Z,37.16
2022-11-27T18:52:13.853Z,37.15
2022-11-27T18:54:45.070Z,37.05
2022-11-27T18:57:15.344Z,37.06
2022-11-27T18:59:51.174Z,37.12
2022-11-27T19:02:21.372Z,37.21
2022-11-27T19:04:51.376Z,37.23
2022-11-27T19:07:21.590Z,37.30
2022-11-27T19:09:51.987Z,37.31
2022-11-27T19:12:21.961Z,37.34
2022-11-27T19:14:52.021Z,37.31
2022-11-27T19:17:26.786Z,37.25
2022-11-27T19:19:56.161Z,37.23
2022-11-27T19:22:27.118Z,37.11
2022-11-27T19:24:57.244Z,37.11
2022-11-27T19:27:27.667Z,37.03
2022-11-27T19:29:58.107Z,37.00
2022-11-27T19:32:28.743Z,37.09
2022-11-27T19:35:01.911Z,37.08
2022-11-27T19:37:34.883Z,37.08
2022-11-27T19:40:03.636Z,37.06
2022-11-27T19:42:34.196Z,37.06
2022-11-27T19:45:04.396Z,37.12
2022-11-27T19:47:34.878Z,37.14
2022-11-27T19:50:04.763Z,37.16
2022-11-27T19:52:36.526Z,37.05
2022-11-27T19:55:07.217Z,37.07
2022-11-27T19:57:37.379Z,37.17
2022-11-27T20:00:09.053Z,37.04
2022-11-27T20:02:39.469Z,37.06
2022-11-27T20:05:10.390Z,37.05
2022-11-27T20:07:40.583Z,37.03
2022-11-27T20:10:11.185Z,36.98
2022-11-27T20:12:42.139Z,37.07
2022-11-27T20:15:17.772Z,37.14
2022-11-27T20:17:47.739Z,36.98
2022-11-27T20:20:17.761Z,37.02
2022-11-27T20:22:47.823Z,37.11
2022-11-27T20:25:19.980Z,36.95
2022-11-27T20:27:49.923Z,37.13
2022-11-27T20:30:19.993Z,37.14
2022-11-27T20:32:50.320Z,37.20
2022-11-27T20:35:20.578Z,37.22
2022-11-27T20:37:51.007Z,37.22
2022-11-27T20:40:22.480Z,37.29
2022-11-27T20:42:52.840Z,37.28
2022-11-27T20:45:22.994Z,37.18
2022-11-27T20:47:54.384Z,37.15
2022-11-27T20:50:25.316Z,37.12
2022-11-27T20:52:55.650Z,37.32
2022-11-27T20:55:26.987Z,37.17
2022-11-27T20:57:57.330Z,37.17
2022-11-27T21:00:27.880Z,37.23
2022-11-27T21:02:59.140Z,37.22
2022-11-27T21:05:30.001Z,37.25
2022-11-27T21:08:01.857Z,37.29
2022-11-27T21:10:32.051Z,37.12
2022-11-27T21:13:03.887Z,37.19
2022-11-27T21:15:34.214Z,37.20
2022-11-27T21:18:04.296Z,37.13
2022-11-27T21:20:34.577Z,37.12
2022-11-27T21:23:04.584Z,37.14
2022-11-27T21:25:34.605Z,37.11
2022-11-27T21:28:05.047Z,37.18
2022-11-27T21:30:35.033Z,37.13
2022-11-27T21:33:06.459Z,37.12
2022-11-27T21:35:40.167Z,37.12
2022-11-27T21:38:08.876Z,37.08
2022-11-27T21:40:39.201Z,37.09
2022-11-27T21:43:09.325Z,37.09
2022-11-27T21:45:39.745Z,36.97
2022-11-27T21:48:14.059Z,36.90
2022-11-27T21:50:41.921Z,36.97
2022-11-27T21:53:12.032Z,36.94
2022-11-27T21:55:42.948Z,37.04
2022-11-27T21:58:12.893Z,36.92
2022-11-27T22:00:43.160Z,36.80
2022-11-27T22:03:15.991Z,36.85
2022-11-27T22:05:45.966Z,36.86
2022-11-27T22:11:03.481Z,36.84
2022-11-27T22:13:33.451Z,36.94
2022-11-27T22:16:03.920Z,36.78
2022-11-27T22:18:33.995Z,36.73
2022-11-27T22:21:08.069Z,36.66
2022-11-27T22:23:39.033Z,36.69
2022-11-27T22:26:11.836Z,36.94
2022-11-27T22:28:42.502Z,36.98
2022-11-27T22:31:20.966Z,37.30
2022-11-27T22:33:51.319Z,37.50
2022-11-27T22:36:28.957Z,37.82
2022-11-27T22:38:59.059Z,37.96
2022-11-27T22:41:29.986Z,37.71
2022-11-27T22:44:01.243Z,37.69
2022-11-27T22:46:36.373Z,37.82
2022-11-27T22:49:08.104Z,37.91
2022-11-27T22:51:38.771Z,38.05
2022-11-27T22:54:10.648Z,38.03
2022-11-27T22:56:40.542Z,37.65
2022-11-27T22:59:31.785Z,37.90
2022-11-27T23:01:42.668Z,38.02
2022-11-27T23:04:13.446Z,38.04
2022-11-27T23:06:44.854Z,37.78
2022-11-27T23:09:15.323Z,37.69
2022-11-27T23:11:45.386Z,37.72
2022-11-27T23:14:15.573Z,37.72
2022-11-27T23:16:45.934Z,37.77
2022-11-27T23:19:16.027Z,37.84
2022-11-27T23:21:46.289Z,37.84
2022-11-27T23:24:16.865Z,37.84
2022-11-27T23:26:46.802Z,37.87
2022-11-27T23:29:17.228Z,37.49
2022-11-27T23:31:57.299Z,37.26
2022-11-27T23:34:19.605Z,37.33
2022-11-27T23:36:49.817Z,37.21
2022-11-27T23:39:20.020Z,37.46
2022-11-27T23:41:50.303Z,37.50
2022-11-27T23:46:56.831Z,37.55
2022-11-27T23:49:27.145Z,37.67
2022-11-27T23:51:57.449Z,37.92
2022-11-27T23:54:28.825Z,37.88
2022-11-27T23:56:58.897Z,37.95
2022-11-27T23:59:29.513Z,38.00
